sensor_id;sensor_type;location;lat;lon;timestamp;pressure;altitude;pressure_sealevel;temperature;humidity
64080;BME280;51042;49.696;10.808;2023-04-23T00:01:54;97753.00;;;14.09;95.45
64080;BME280;51042;49.696;10.808;2023-04-23T00:04:22;97748.91;;;14.19;93.90
64080;BME280;51042;49.696;10.808;2023-04-23T00:06:50;97748.66;;;14.17;94.57
64080;BME280;51042;49.696;10.808;2023-04-23T00:09:16;97741.50;;;14.10;95.41
64080;BME280;51042;49.696;10.808;2023-04-23T00:11:43;97743.03;;;14.11;96.37
64080;BME280;51042;49.696;10.808;2023-04-23T00:14:08;97736.75;;;14.11;96.85
64080;BME280;51042;49.696;10.808;2023-04-23T00:16:35;97723.91;;;14.08;98.26
64080;BME280;51042;49.696;10.808;2023-04-23T00:19:01;97733.81;;;14.00;96.79
64080;BME280;51042;49.696;10.808;2023-04-23T00:21:26;97730.44;;;13.96;96.97
64080;BME280;51042;49.696;10.808;2023-04-23T00:23:51;97733.19;;;13.96;96.86
64080;BME280;51042;49.696;10.808;2023-04-23T00:26:16;97723.41;;;13.95;97.49
64080;BME280;51042;49.696;10.808;2023-04-23T00:28:42;97727.13;;;13.92;96.52
64080;BME280;51042;49.696;10.808;2023-04-23T00:31:07;97722.06;;;13.90;96.52
64080;BME280;51042;49.696;10.808;2023-04-23T00:33:33;97724.34;;;13.92;96.88
64080;BME280;51042;49.696;10.808;2023-04-23T00:35:58;97726.66;;;13.93;97.67
64080;BME280;51042;49.696;10.808;2023-04-23T00:38:23;97731.09;;;13.90;97.72
64080;BME280;51042;49.696;10.808;2023-04-23T00:40:50;97725.03;;;13.86;97.58
64080;BME280;51042;49.696;10.808;2023-04-23T00:43:16;97725.38;;;13.79;98.20
64080;BME280;51042;49.696;10.808;2023-04-23T00:45:41;97718.69;;;13.71;97.94
64080;BME280;51042;49.696;10.808;2023-04-23T00:48:07;97733.63;;;13.65;99.16
64080;BME280;51042;49.696;10.808;2023-04-23T00:50:32;97737.09;;;13.51;98.13
64080;BME280;51042;49.696;10.808;2023-04-23T00:53:01;97745.19;;;13.30;98.73
64080;BME280;51042;49.696;10.808;2023-04-23T00:55:26;97732.41;;;13.18;100.00
64080;BME280;51042;49.696;10.808;2023-04-23T00:57:52;97735.06;;;13.13;100.00
64080;BME280;51042;49.696;10.808;2023-04-23T01:00:18;97734.44;;;13.08;100.00
64080;BME280;51042;49.696;10.808;2023-04-23T01:02:44;97730.16;;;13.07;100.00
64080;BME280;51042;49.696;10.808;2023-04-23T01:05:12;97736.44;;;13.08;100.00
64080;BME280;51042;49.696;10.808;2023-04-23T01:07:40;97730.50;;;13.00;100.00
64080;BME280;51042;49.696;10.808;2023-04-23T01:10:08;97734.97;;;12.98;100.00
64080;BME280;51042;49.696;10.808;2023-04-23T01:12:33;97745.38;;;12.94;100.00
64080;BME280;51042;49.696;10.808;2023-04-23T01:14:59;97744.59;;;12.93;100.00
64080;BME280;51042;49.696;10.808;2023-04-23T01:17:24;97746.91;;;12.95;100.00
64080;BME280;51042;49.696;10.808;2023-04-23T01:19:50;97749.66;;;12.95;100.00
64080;BME280;51042;49.696;10.808;2023-04-23T01:22:16;97751.66;;;12.94;100.00
64080;BME280;51042;49.696;10.808;2023-04-23T01:24:41;97736.34;;;12.93;100.00
64080;BME280;51042;49.696;10.808;2023-04-23T01:27:07;97750.13;;;12.93;100.00
64080;BME280;51042;49.696;10.808;2023-04-23T01:29:33;97743.09;;;12.92;100.00
64080;BME280;51042;49.696;10.808;2023-04-23T01:31:59;97735.38;;;12.73;100.00
64080;BME280;51042;49.696;10.808;2023-04-23T01:34:25;97733.78;;;12.57;100.00
64080;BME280;51042;49.696;10.808;2023-04-23T01:36:50;97731.03;;;12.57;100.00
64080;BME280;51042;49.696;10.808;2023-04-23T01:39:16;97730.97;;;12.66;100.00
64080;BME280;51042;49.696;10.808;2023-04-23T01:41:42;97732.19;;;12.74;100.00
64080;BME280;51042;49.696;10.808;2023-04-23T01:44:07;97731.81;;;12.81;100.00
64080;BME280;51042;49.696;10.808;2023-04-23T01:46:33;97726.59;;;12.83;100.00
64080;BME280;51042;49.696;10.808;2023-04-23T01:48:58;97726.47;;;12.78;100.00
64080;BME280;51042;49.696;10.808;2023-04-23T01:51:24;97728.78;;;12.79;100.00
64080;BME280;51042;49.696;10.808;2023-04-23T01:53:51;97729.81;;;12.82;100.00
64080;BME280;51042;49.696;10.808;2023-04-23T01:56:16;97733.97;;;12.86;100.00
64080;BME280;51042;49.696;10.808;2023-04-23T01:58:46;97737.59;;;12.92;100.00
64080;BME280;51042;49.696;10.808;2023-04-23T02:01:12;97739.88;;;12.94;100.00
64080;BME280;51042;49.696;10.808;2023-04-23T02:03:37;97734.34;;;12.94;100.00
64080;BME280;51042;49.696;10.808;2023-04-23T02:06:03;97738.81;;;12.91;100.00
64080;BME280;51042;49.696;10.808;2023-04-23T02:08:29;97732.84;;;12.93;100.00
64080;BME280;51042;49.696;10.808;2023-04-23T02:10:55;97732.56;;;12.91;100.00
64080;BME280;51042;49.696;10.808;2023-04-23T02:13:21;97736.06;;;12.91;100.00
64080;BME280;51042;49.696;10.808;2023-04-23T02:15:46;97740.03;;;12.90;100.00
64080;BME280;51042;49.696;10.808;2023-04-23T02:18:12;97742.34;;;12.92;100.00
64080;BME280;51042;49.696;10.808;2023-04-23T02:20:37;97743.72;;;12.87;100.00
64080;BME280;51042;49.696;10.808;2023-04-23T02:23:05;97744.19;;;12.86;100.00
64080;BME280;51042;49.696;10.808;2023-04-23T02:25:33;97746.47;;;12.87;100.00
64080;BME280;51042;49.696;10.808;2023-04-23T02:27:58;97745.56;;;12.90;100.00
64080;BME280;51042;49.696;10.808;2023-04-23T02:30:25;97743.25;;;12.89;100.00
64080;BME280;51042;49.696;10.808;2023-04-23T02:32:51;97743.25;;;12.89;100.00
64080;BME280;51042;49.696;10.808;2023-04-23T02:35:17;97744.47;;;12.88;100.00
64080;BME280;51042;49.696;10.808;2023-04-23T02:37:42;97744.19;;;12.86;100.00
64080;BME280;51042;49.696;10.808;2023-04-23T02:40:07;97741.31;;;12.80;100.00
64080;BME280;51042;49.696;10.808;2023-04-23T02:42:33;97749.28;;;12.78;100.00
64080;BME280;51042;49.696;10.808;2023-04-23T02:44:59;97755.41;;;12.73;100.00
64080;BME280;51042;49.696;10.808;2023-04-23T02:47:24;97757.72;;;12.75;100.00
64080;BME280;51042;49.696;10.808;2023-04-23T02:49:50;97758.31;;;12.69;100.00
64080;BME280;51042;49.696;10.808;2023-04-23T02:52:15;97762.47;;;12.74;100.00
64080;BME280;51042;49.696;10.808;2023-04-23T02:54:40;97769.94;;;12.74;100.00
64080;BME280;51042;49.696;10.808;2023-04-23T02:57:06;97765.78;;;12.78;100.00
64080;BME280;51042;49.696;10.808;2023-04-23T02:59:31;97773.72;;;12.85;100.00
64080;BME280;51042;49.696;10.808;2023-04-23T03:01:56;97771.44;;;12.84;100.00
64080;BME280;51042;49.696;10.808;2023-04-23T03:04:22;97776.75;;;12.87;100.00
64080;BME280;51042;49.696;10.808;2023-04-23T03:06:47;97778.91;;;12.92;100.00
64080;BME280;51042;49.696;10.808;2023-04-23T03:09:13;97778.41;;;12.94;100.00
64080;BME280;51042;49.696;10.808;2023-04-23T03:11:38;97776.75;;;12.96;100.00
64080;BME280;51042;49.696;10.808;2023-04-23T03:14:03;97788.06;;;12.98;100.00
64080;BME280;51042;49.696;10.808;2023-04-23T03:16:29;97786.53;;;12.97;100.00
64080;BME280;51042;49.696;10.808;2023-04-23T03:18:56;97784.22;;;12.96;100.00
64080;BME280;51042;49.696;10.808;2023-04-23T03:21:21;97780.13;;;12.91;100.00
64080;BME280;51042;49.696;10.808;2023-04-23T03:23:47;97781.53;;;12.87;100.00
64080;BME280;51042;49.696;10.808;2023-04-23T03:26:12;97778.94;;;12.83;100.00
64080;BME280;51042;49.696;10.808;2023-04-23T03:28:37;97782.31;;;12.78;100.00
64080;BME280;51042;49.696;10.808;2023-04-23T03:31:03;97781.25;;;12.76;100.00
64080;BME280;51042;49.696;10.808;2023-04-23T03:33:28;97775.47;;;12.74;100.00
64080;BME280;51042;49.696;10.808;2023-04-23T03:35:53;97781.25;;;12.76;100.00
64080;BME280;51042;49.696;10.808;2023-04-23T03:38:19;97776.38;;;12.71;100.00
64080;BME280;51042;49.696;10.808;2023-04-23T03:40:44;97787.88;;;12.60;100.00
64080;BME280;51042;49.696;10.808;2023-04-23T03:43:10;97794.47;;;12.53;100.00
64080;BME280;51042;49.696;10.808;2023-04-23T03:45:35;97786.84;;;12.48;100.00
64080;BME280;51042;49.696;10.808;2023-04-23T03:48:00;97786.41;;;12.41;100.00
64080;BME280;51042;49.696;10.808;2023-04-23T03:50:25;97788.38;;;12.40;100.00
64080;BME280;51042;49.696;10.808;2023-04-23T03:52:51;97788.09;;;12.38;100.00
64080;BME280;51042;49.696;10.808;2023-04-23T03:55:16;97791.13;;;12.40;100.00
64080;BME280;51042;49.696;10.808;2023-04-23T03:57:41;97784.56;;;12.47;100.00
64080;BME280;51042;49.696;10.808;2023-04-23T04:00:07;97784.56;;;12.47;100.00
64080;BME280;51042;49.696;10.808;2023-04-23T04:02:33;97788.38;;;12.40;100.00
64080;BME280;51042;49.696;10.808;2023-04-23T04:04:58;97792.22;;;12.43;100.00
64080;BME280;51042;49.696;10.808;2023-04-23T04:07:23;97792.97;;;12.43;100.00
64080;BME280;51042;49.696;10.808;2023-04-23T04:09:48;97787.16;;;12.50;100.00
64080;BME280;51042;49.696;10.808;2023-04-23T04:12:14;97788.66;;;12.51;100.00
64080;BME280;51042;49.696;10.808;2023-04-23T04:14:40;97799.66;;;12.51;100.00
64080;BME280;51042;49.696;10.808;2023-04-23T04:17:06;97792.66;;;12.50;100.00
64080;BME280;51042;49.696;10.808;2023-04-23T04:19:32;97794.66;;;12.50;100.00
64080;BME280;51042;49.696;10.808;2023-04-23T04:21:57;97798.16;;;12.41;100.00
64080;BME280;51042;49.696;10.808;2023-04-23T04:24:22;97794.19;;;12.42;100.00
64080;BME280;51042;49.696;10.808;2023-04-23T04:26:49;97808.56;;;12.46;100.00
64080;BME280;51042;49.696;10.808;2023-04-23T04:29:16;97806.56;;;12.47;100.00
64080;BME280;51042;49.696;10.808;2023-04-23T04:31:42;97801.69;;;12.51;100.00
64080;BME280;51042;49.696;10.808;2023-04-23T04:34:07;97807.50;;;12.44;100.00
64080;BME280;51042;49.696;10.808;2023-04-23T04:36:34;97804.13;;;12.40;100.00
64080;BME280;51042;49.696;10.808;2023-04-23T04:38:59;97803.66;;;12.41;100.00
64080;BME280;51042;49.696;10.808;2023-04-23T04:41:25;97806.13;;;12.39;100.00
64080;BME280;51042;49.696;10.808;2023-04-23T04:43:51;97806.72;;;12.43;100.00
64080;BME280;51042;49.696;10.808;2023-04-23T04:46:18;97808.09;;;12.48;100.00
64080;BME280;51042;49.696;10.808;2023-04-23T04:48:44;97811.16;;;12.50;100.00
64080;BME280;51042;49.696;10.808;2023-04-23T04:51:10;97812.81;;;12.56;100.00
64080;BME280;51042;49.696;10.808;2023-04-23T04:53:35;97810.06;;;12.56;100.00
64080;BME280;51042;49.696;10.808;2023-04-23T04:56:01;97807.00;;;12.54;100.00
64080;BME280;51042;49.696;10.808;2023-04-23T04:58:26;97806.69;;;12.61;100.00
64080;BME280;51042;49.696;10.808;2023-04-23T05:00:51;97812.03;;;12.65;100.00
64080;BME280;51042;49.696;10.808;2023-04-23T05:03:17;97815.09;;;12.67;100.00
64080;BME280;51042;49.696;10.808;2023-04-23T05:05:43;97811.88;;;12.68;100.00
64080;BME280;51042;49.696;10.808;2023-04-23T05:08:09;97816.13;;;12.69;100.00
64080;BME280;51042;49.696;10.808;2023-04-23T05:10:35;97819.19;;;12.72;100.00
64080;BME280;51042;49.696;10.808;2023-04-23T05:13:01;97824.06;;;12.77;100.00
64080;BME280;51042;49.696;10.808;2023-04-23T05:15:26;97829.25;;;12.93;100.00
64080;BME280;51042;49.696;10.808;2023-04-23T05:17:51;97828.16;;;12.90;100.00
64080;BME280;51042;49.696;10.808;2023-04-23T05:20:18;97832.16;;;12.89;100.00
64080;BME280;51042;49.696;10.808;2023-04-23T05:22:44;97836.31;;;12.85;100.00
64080;BME280;51042;49.696;10.808;2023-04-23T05:25:10;97831.38;;;12.89;100.00
64080;BME280;51042;49.696;10.808;2023-04-23T05:27:36;97831.25;;;12.83;100.00
64080;BME280;51042;49.696;10.808;2023-04-23T05:30:03;97833.53;;;12.85;100.00
64080;BME280;51042;49.696;10.808;2023-04-23T05:32:30;97821.59;;;12.88;100.00
64080;BME280;51042;49.696;10.808;2023-04-23T05:34:56;97835.22;;;12.82;100.00
64080;BME280;51042;49.696;10.808;2023-04-23T05:37:21;97833.38;;;12.88;100.00
64080;BME280;51042;49.696;10.808;2023-04-23T05:39:47;97835.34;;;12.88;100.00
64080;BME280;51042;49.696;10.808;2023-04-23T05:42:12;97838.09;;;12.88;100.00
64080;BME280;51042;49.696;10.808;2023-04-23T05:44:37;97841.81;;;12.85;100.00
64080;BME280;51042;49.696;10.808;2023-04-23T05:47:03;97835.84;;;12.77;100.00
64080;BME280;51042;49.696;10.808;2023-04-23T05:49:28;97844.56;;;12.76;100.00
64080;BME280;51042;49.696;10.808;2023-04-23T05:51:54;97840.19;;;12.69;100.00
64080;BME280;51042;49.696;10.808;2023-04-23T05:54:20;97841.41;;;12.68;100.00
64080;BME280;51042;49.696;10.808;2023-04-23T05:56:45;97847.94;;;12.71;100.00
64080;BME280;51042;49.696;10.808;2023-04-23T05:59:11;97849.47;;;12.72;100.00
64080;BME280;51042;49.696;10.808;2023-04-23T06:01:36;97849.31;;;12.75;100.00
64080;BME280;51042;49.696;10.808;2023-04-23T06:04:01;97843.34;;;12.77;100.00
64080;BME280;51042;49.696;10.808;2023-04-23T06:06:27;97850.69;;;12.80;100.00
64080;BME280;51042;49.696;10.808;2023-04-23T06:08:52;97846.63;;;12.99;100.00
64080;BME280;51042;49.696;10.808;2023-04-23T06:11:18;97848.31;;;13.15;100.00
64080;BME280;51042;49.696;10.808;2023-04-23T06:13:44;97858.19;;;13.30;100.00
64080;BME280;51042;49.696;10.808;2023-04-23T06:16:09;97863.47;;;13.43;100.00
64080;BME280;51042;49.696;10.808;2023-04-23T06:18:34;97863.38;;;13.61;100.00
64080;BME280;51042;49.696;10.808;2023-04-23T06:21:01;97864.09;;;13.71;100.00
64080;BME280;51042;49.696;10.808;2023-04-23T06:23:28;97856.47;;;13.89;100.00
64080;BME280;51042;49.696;10.808;2023-04-23T06:25:54;97854.41;;;13.99;100.00
64080;BME280;51042;49.696;10.808;2023-04-23T06:28:19;97862.94;;;13.86;100.00
64080;BME280;51042;49.696;10.808;2023-04-23T06:30:45;97869.91;;;13.73;100.00
64080;BME280;51042;49.696;10.808;2023-04-23T06:33:10;97871.47;;;13.65;100.00
64080;BME280;51042;49.696;10.808;2023-04-23T06:35:36;97864.16;;;13.62;100.00
64080;BME280;51042;49.696;10.808;2023-04-23T06:38:01;97866.25;;;13.43;100.00
64080;BME280;51042;49.696;10.808;2023-04-23T06:40:27;97870.28;;;13.33;100.00
64080;BME280;51042;49.696;10.808;2023-04-23T06:42:52;97858.16;;;13.39;100.00
64080;BME280;51042;49.696;10.808;2023-04-23T06:45:18;97858.97;;;13.55;100.00
64080;BME280;51042;49.696;10.808;2023-04-23T06:47:44;97861.41;;;13.62;100.00
64080;BME280;51042;49.696;10.808;2023-04-23T06:50:09;97865.97;;;13.65;100.00
64080;BME280;51042;49.696;10.808;2023-04-23T06:52:35;97855.34;;;13.72;100.00
64080;BME280;51042;49.696;10.808;2023-04-23T06:55:00;97865.97;;;13.65;100.00
64080;BME280;51042;49.696;10.808;2023-04-23T06:57:25;97844.22;;;13.67;100.00
64080;BME280;51042;49.696;10.808;2023-04-23T06:59:51;97847.53;;;13.95;100.00
64080;BME280;51042;49.696;10.808;2023-04-23T07:02:17;97843.56;;;14.34;98.43
64080;BME280;51042;49.696;10.808;2023-04-23T07:04:42;97846.66;;;14.51;94.76
64080;BME280;51042;49.696;10.808;2023-04-23T07:07:07;97844.19;;;14.53;93.90
64080;BME280;51042;49.696;10.808;2023-04-23T07:09:33;97848.63;;;14.50;94.56
64080;BME280;51042;49.696;10.808;2023-04-23T07:11:58;97851.44;;;14.65;93.31
64080;BME280;51042;49.696;10.808;2023-04-23T07:14:23;97849.09;;;14.49;90.92
64080;BME280;51042;49.696;10.808;2023-04-23T07:16:49;97849.88;;;14.49;90.82
64080;BME280;51042;49.696;10.808;2023-04-23T07:19:14;97852.94;;;14.51;89.61
64080;BME280;51042;49.696;10.808;2023-04-23T07:21:40;97859.13;;;14.76;88.19
64080;BME280;51042;49.696;10.808;2023-04-23T07:24:05;97852.28;;;14.86;85.73
64080;BME280;51042;49.696;10.808;2023-04-23T07:26:31;97865.97;;;15.09;84.10
64080;BME280;51042;49.696;10.808;2023-04-23T07:28:57;97858.34;;;15.69;81.30
64080;BME280;51042;49.696;10.808;2023-04-23T07:31:22;97858.50;;;16.00;77.19
64080;BME280;51042;49.696;10.808;2023-04-23T07:33:48;97864.59;;;15.84;77.63
64080;BME280;51042;49.696;10.808;2023-04-23T07:36:13;97851.00;;;15.66;78.01
64080;BME280;51042;49.696;10.808;2023-04-23T07:38:39;97859.03;;;15.64;78.27
64080;BME280;51042;49.696;10.808;2023-04-23T07:41:04;97856.47;;;15.45;79.04
64080;BME280;51042;49.696;10.808;2023-04-23T07:43:30;97848.56;;;15.53;77.78
64080;BME280;51042;49.696;10.808;2023-04-23T07:45:55;97859.78;;;15.64;79.52
64080;BME280;51042;49.696;10.808;2023-04-23T07:48:20;97848.38;;;15.42;78.02
64080;BME280;51042;49.696;10.808;2023-04-23T07:50:46;97853.69;;;14.96;80.68
64080;BME280;51042;49.696;10.808;2023-04-23T07:53:11;97853.59;;;14.90;80.68
64080;BME280;51042;49.696;10.808;2023-04-23T07:55:36;97844.31;;;15.23;80.03
64080;BME280;51042;49.696;10.808;2023-04-23T07:58:02;97842.16;;;15.47;79.01
64080;BME280;51042;49.696;10.808;2023-04-23T08:00:27;97845.91;;;15.99;79.14
64080;BME280;51042;49.696;10.808;2023-04-23T08:02:52;97837.97;;;16.79;73.08
64080;BME280;51042;49.696;10.808;2023-04-23T08:05:18;97829.78;;;16.95;71.80
64080;BME280;51042;49.696;10.808;2023-04-23T08:07:43;97833.59;;;17.35;69.85
64080;BME280;51042;49.696;10.808;2023-04-23T08:10:08;97832.09;;;17.34;70.80
64080;BME280;51042;49.696;10.808;2023-04-23T08:12:34;97824.00;;;17.67;69.83
64080;BME280;51042;49.696;10.808;2023-04-23T08:15:00;97818.91;;;17.60;68.33
64080;BME280;51042;49.696;10.808;2023-04-23T08:17:25;97827.69;;;16.85;70.94
64080;BME280;51042;49.696;10.808;2023-04-23T08:19:51;97827.75;;;16.64;72.46
64080;BME280;51042;49.696;10.808;2023-04-23T08:22:16;97834.41;;;16.52;73.44
64080;BME280;51042;49.696;10.808;2023-04-23T08:24:42;97827.34;;;16.51;72.34
64080;BME280;51042;49.696;10.808;2023-04-23T08:27:09;97826.66;;;16.82;70.56
64080;BME280;51042;49.696;10.808;2023-04-23T08:29:34;97828.97;;;17.21;68.98
64080;BME280;51042;49.696;10.808;2023-04-23T08:32:00;97826.34;;;17.43;67.63
64080;BME280;51042;49.696;10.808;2023-04-23T08:34:25;97827.56;;;17.79;65.33
64080;BME280;51042;49.696;10.808;2023-04-23T08:36:50;97828.84;;;17.83;64.76
64080;BME280;51042;49.696;10.808;2023-04-23T08:39:16;97819.28;;;17.90;64.10
64080;BME280;51042;49.696;10.808;2023-04-23T08:41:41;97821.69;;;18.25;62.07
64080;BME280;51042;49.696;10.808;2023-04-23T08:44:17;97817.78;;;18.98;61.21
64080;BME280;51042;49.696;10.808;2023-04-23T08:46:47;97809.66;;;19.28;57.18
64080;BME280;51042;49.696;10.808;2023-04-23T08:49:16;97809.41;;;19.15;58.15
64080;BME280;51042;49.696;10.808;2023-04-23T08:51:47;97813.22;;;18.95;57.72
64080;BME280;51042;49.696;10.808;2023-04-23T08:54:17;97810.69;;;18.81;59.33
64080;BME280;51042;49.696;10.808;2023-04-23T08:56:46;97809.69;;;18.72;59.84
64080;BME280;51042;49.696;10.808;2023-04-23T08:59:12;97808.44;;;19.12;57.79
64080;BME280;51042;49.696;10.808;2023-04-23T09:01:37;97807.88;;;19.25;56.91
64080;BME280;51042;49.696;10.808;2023-04-23T09:04:02;97805.38;;;18.77;58.07
64080;BME280;51042;49.696;10.808;2023-04-23T09:06:29;97798.81;;;18.74;58.10
64080;BME280;51042;49.696;10.808;2023-04-23T09:08:56;97805.91;;;18.75;58.85
64080;BME280;51042;49.696;10.808;2023-04-23T09:11:23;97810.13;;;19.38;57.21
64080;BME280;51042;49.696;10.808;2023-04-23T09:13:51;97813.66;;;19.72;53.63
64080;BME280;51042;49.696;10.808;2023-04-23T09:16:17;97812.59;;;19.80;54.00
64080;BME280;51042;49.696;10.808;2023-04-23T09:18:43;97812.81;;;19.88;53.25
64080;BME280;51042;49.696;10.808;2023-04-23T09:21:08;97801.44;;;20.44;51.78
64080;BME280;51042;49.696;10.808;2023-04-23T09:23:37;97800.81;;;19.24;53.29
64080;BME280;51042;49.696;10.808;2023-04-23T09:26:04;97805.03;;;19.70;53.99
64080;BME280;51042;49.696;10.808;2023-04-23T09:28:33;97808.09;;;19.66;53.41
64080;BME280;51042;49.696;10.808;2023-04-23T09:31:00;97799.38;;;19.92;52.90
64080;BME280;51042;49.696;10.808;2023-04-23T09:33:25;97798.69;;;20.27;52.03
64080;BME280;51042;49.696;10.808;2023-04-23T09:35:52;97793.84;;;20.38;50.39
64080;BME280;51042;49.696;10.808;2023-04-23T09:38:18;97802.25;;;20.27;51.26
64080;BME280;51042;49.696;10.808;2023-04-23T09:40:43;97793.00;;;20.55;49.52
64080;BME280;51042;49.696;10.808;2023-04-23T09:43:09;97785.19;;;20.48;49.46
64080;BME280;51042;49.696;10.808;2023-04-23T09:45:35;97789.09;;;20.69;50.10
64080;BME280;51042;49.696;10.808;2023-04-23T09:48:00;97779.78;;;19.40;50.78
64080;BME280;51042;49.696;10.808;2023-04-23T09:50:36;97784.00;;;19.74;52.10
64080;BME280;51042;49.696;10.808;2023-04-23T09:53:06;97778.63;;;20.40;50.72
64080;BME280;51042;49.696;10.808;2023-04-23T09:55:33;97767.53;;;20.69;50.28
64080;BME280;51042;49.696;10.808;2023-04-23T09:58:04;97784.72;;;21.09;49.76
64080;BME280;51042;49.696;10.808;2023-04-23T10:00:32;97776.84;;;21.07;49.13
64080;BME280;51042;49.696;10.808;2023-04-23T10:02:59;97768.34;;;20.64;49.88
64080;BME280;51042;49.696;10.808;2023-04-23T10:05:24;97763.22;;;20.33;50.59
64080;BME280;51042;49.696;10.808;2023-04-23T10:07:50;97763.41;;;20.76;51.57
64080;BME280;51042;49.696;10.808;2023-04-23T10:10:16;97760.25;;;20.61;51.55
64080;BME280;51042;49.696;10.808;2023-04-23T10:12:42;97755.38;;;19.79;52.57
64080;BME280;51042;49.696;10.808;2023-04-23T10:15:09;97748.03;;;19.82;54.16
64080;BME280;51042;49.696;10.808;2023-04-23T10:17:36;97758.06;;;20.48;51.92
64080;BME280;51042;49.696;10.808;2023-04-23T10:20:03;97752.78;;;19.92;50.71
64080;BME280;51042;49.696;10.808;2023-04-23T10:22:30;97756.06;;;19.96;51.34
64080;BME280;51042;49.696;10.808;2023-04-23T10:24:57;97747.81;;;21.22;51.71
64080;BME280;51042;49.696;10.808;2023-04-23T10:27:26;97752.00;;;21.34;47.47
64080;BME280;51042;49.696;10.808;2023-04-23T10:29:52;97747.03;;;20.26;50.28
64080;BME280;51042;49.696;10.808;2023-04-23T10:32:18;97747.91;;;20.04;51.61
64080;BME280;51042;49.696;10.808;2023-04-23T10:34:46;97740.84;;;20.44;50.68
64080;BME280;51042;49.696;10.808;2023-04-23T10:37:12;97739.50;;;20.86;49.34
64080;BME280;51042;49.696;10.808;2023-04-23T10:39:40;97738.91;;;21.23;49.20
64080;BME280;51042;49.696;10.808;2023-04-23T10:42:08;97734.97;;;21.37;49.53
64080;BME280;51042;49.696;10.808;2023-04-23T10:44:38;97738.59;;;21.32;48.72
64080;BME280;51042;49.696;10.808;2023-04-23T10:47:06;97735.38;;;21.23;48.25
64080;BME280;51042;49.696;10.808;2023-04-23T10:49:36;97744.38;;;20.80;47.60
64080;BME280;51042;49.696;10.808;2023-04-23T10:52:12;97725.03;;;20.88;49.04
64080;BME280;51042;49.696;10.808;2023-04-23T10:54:40;97727.97;;;21.49;47.46
64080;BME280;51042;49.696;10.808;2023-04-23T10:57:07;97721.25;;;21.15;46.88
64080;BME280;51042;49.696;10.808;2023-04-23T10:59:34;97723.72;;;20.29;48.27
64080;BME280;51042;49.696;10.808;2023-04-23T11:02:10;97713.22;;;20.46;47.83
64080;BME280;51042;49.696;10.808;2023-04-23T11:04:46;97713.97;;;20.06;49.77
64080;BME280;51042;49.696;10.808;2023-04-23T11:07:18;97726.31;;;20.57;47.65
64080;BME280;51042;49.696;10.808;2023-04-23T11:09:47;97719.13;;;20.37;48.93
64080;BME280;51042;49.696;10.808;2023-04-23T11:14:46;97707.19;;;20.72;48.68
64080;BME280;51042;49.696;10.808;2023-04-23T11:17:14;97697.75;;;21.29;47.74
64080;BME280;51042;49.696;10.808;2023-04-23T11:19:40;97701.13;;;21.22;45.04
64080;BME280;51042;49.696;10.808;2023-04-23T11:22:27;97706.19;;;20.40;48.19
64080;BME280;51042;49.696;10.808;2023-04-23T11:24:58;97699.78;;;20.45;48.91
64080;BME280;51042;49.696;10.808;2023-04-23T11:27:25;97699.41;;;20.89;47.89
64080;BME280;51042;49.696;10.808;2023-04-23T11:29:54;97694.84;;;21.16;47.70
64080;BME280;51042;49.696;10.808;2023-04-23T11:32:19;97692.50;;;20.96;47.66
64080;BME280;51042;49.696;10.808;2023-04-23T11:34:45;97685.72;;;20.91;47.43
64080;BME280;51042;49.696;10.808;2023-04-23T11:37:12;97680.00;;;20.48;49.21
64080;BME280;51042;49.696;10.808;2023-04-23T11:39:39;97685.22;;;20.87;48.71
64080;BME280;51042;49.696;10.808;2023-04-23T11:42:14;97687.97;;;20.93;48.20
64080;BME280;51042;49.696;10.808;2023-04-23T11:44:44;97688.84;;;20.82;49.90
64080;BME280;51042;49.696;10.808;2023-04-23T11:47:11;97686.81;;;20.53;50.75
64080;BME280;51042;49.696;10.808;2023-04-23T11:49:41;97677.91;;;20.24;51.62
64080;BME280;51042;49.696;10.808;2023-04-23T11:52:08;97684.03;;;20.17;51.92
64080;BME280;51042;49.696;10.808;2023-04-23T11:54:34;97677.53;;;20.04;51.22
64080;BME280;51042;49.696;10.808;2023-04-23T11:57:00;97676.31;;;19.93;52.07
64080;BME280;51042;49.696;10.808;2023-04-23T11:59:27;97681.34;;;19.43;53.99
64080;BME280;51042;49.696;10.808;2023-04-23T12:01:56;97675.78;;;19.43;54.66
64080;BME280;51042;49.696;10.808;2023-04-23T12:04:24;97674.88;;;19.24;54.63
64080;BME280;51042;49.696;10.808;2023-04-23T12:06:53;97659.91;;;19.32;54.41
64080;BME280;51042;49.696;10.808;2023-04-23T12:09:21;97658.09;;;19.51;54.46
64080;BME280;51042;49.696;10.808;2023-04-23T12:11:48;97653.84;;;20.21;52.67
64080;BME280;51042;49.696;10.808;2023-04-23T12:14:15;97653.63;;;20.79;50.63
64080;BME280;51042;49.696;10.808;2023-04-23T12:16:41;97644.72;;;21.29;50.37
64080;BME280;51042;49.696;10.808;2023-04-23T12:19:12;97647.97;;;21.52;49.36
64080;BME280;51042;49.696;10.808;2023-04-23T12:21:49;97656.22;;;21.63;48.05
64080;BME280;51042;49.696;10.808;2023-04-23T12:24:19;97652.13;;;21.02;47.94
64080;BME280;51042;49.696;10.808;2023-04-23T12:26:47;97641.16;;;21.04;49.45
64080;BME280;51042;49.696;10.808;2023-04-23T12:29:14;97635.06;;;22.05;48.30
64080;BME280;51042;49.696;10.808;2023-04-23T12:31:42;97627.66;;;22.08;45.79
64080;BME280;51042;49.696;10.808;2023-04-23T12:34:08;97637.72;;;21.41;46.10
64080;BME280;51042;49.696;10.808;2023-04-23T12:36:35;97634.75;;;21.15;47.49
64080;BME280;51042;49.696;10.808;2023-04-23T12:39:24;97633.66;;;21.80;47.10
64080;BME280;51042;49.696;10.808;2023-04-23T12:41:52;97617.16;;;22.59;44.68
64080;BME280;51042;49.696;10.808;2023-04-23T12:44:20;97619.13;;;23.30;44.19